KVCV/VCV METAR and TAF weather

Enter ICAO airport designator
Station Type Date Time Source
KVCV METAR 2022/01/26 13:35 UTC NOAA

KVCV 261335Z AUTO 18005KT 10SM CLR M02/M13 A3023 RMK AO2


Station Type Date Time Source
KVCV Decoded METAR 2022/01/26 13:35 UTC NOAA

Victorville, Southern California Logistics Airport, CA, United States (KVCV) 34-35-50N 117-22-58W
Jan 26, 2022 - 08:35 AM EST / 2022.01.26 1335 UTC
Wind: from the S (180 degrees) at 6 MPH (5 KT):0
Visibility: 10 mile(s):0
Sky conditions: clear
Temperature: 28 F (-2 C)
Windchill: 21 F (-6 C):1
Dew Point: 8 F (-13 C)
Relative Humidity: 42%
Pressure (altimeter): 30.23 in. Hg (1023 hPa)
ob: KVCV 261335Z AUTO 18005KT 10SM CLR M02/M13 A3023 RMK AO2
cycle: 13

Station Type Date Time Source
KVCV TAF UTC NOAA

Error!

Example: see airport list